Time;durP1;ratioP1;P1;durP2;ratioP2;P2;SDS_P1;SDS_P2;PMS_P1;PMS_P2;Temp;Humidity;BMP_temperature;BMP_pressure;BME280_temperature;BME280_humidity;BME280_pressure;Samples;Min_cycle;Max_cycle;Signal;HPM_P1;HPM_P2
2023/04/06 00:02:09;;;;;;;65.13;18.30;;;17.40;52.80;;;;;;5129718;27;20226;-84
2023/04/06 00:04:35;;;;;;;41.03;17.40;;;17.30;52.70;;;;;;5127684;27;20257;-87
2023/04/06 00:07:04;;;;;;;46.27;16.93;;;17.30;52.70;;;;;;5124844;27;20207;-85
2023/04/06 00:09:31;;;;;;;58.53;17.87;;;17.30;52.70;;;;;;5127936;27;20232;-88
2023/04/06 00:11:58;;;;;;;36.63;16.40;;;17.30;52.70;;;;;;5126204;27;20714;-91
2023/04/06 00:14:25;;;;;;;41.00;17.13;;;17.30;52.70;;;;;;5111840;27;20213;-90
2023/04/06 00:16:52;;;;;;;49.97;18.40;;;17.30;52.70;;;;;;5113031;27;20320;-89
2023/04/06 00:19:19;;;;;;;70.33;19.20;;;17.30;52.70;;;;;;5129455;27;20209;-85
2023/04/06 00:21:46;;;;;;;41.50;16.87;;;17.30;52.70;;;;;;5126161;27;20300;-85
2023/04/06 00:24:15;;;;;;;42.00;16.97;;;17.20;52.70;;;;;;5110671;27;20245;-85
2023/04/06 00:26:42;;;;;;;41.60;16.50;;;17.20;52.60;;;;;;5124474;27;20206;-85
2023/04/06 00:29:09;;;;;;;44.03;17.63;;;17.30;52.70;;;;;;5123566;27;20281;-85
2023/04/06 00:31:36;;;;;;;45.77;16.90;;;17.20;52.60;;;;;;5116482;27;20210;-86
2023/04/06 00:34:03;;;;;;;50.23;16.83;;;17.20;52.70;;;;;;5120117;27;20669;-85
2023/04/06 00:36:30;;;;;;;47.00;16.73;;;17.20;52.60;;;;;;5117483;27;20232;-88
2023/04/06 00:38:57;;;;;;;36.10;16.40;;;17.20;52.70;;;;;;5126685;27;20779;-85
2023/04/06 00:41:25;;;;;;;44.87;16.57;;;17.20;52.70;;;;;;5125898;27;20237;-85
2023/04/06 00:43:54;;;;;;;62.57;19.07;;;17.20;52.70;;;;;;5128653;27;20246;-85
2023/04/06 00:46:21;;;;;;;51.47;17.27;;;17.20;52.70;;;;;;5118447;27;20320;-84
2023/04/06 00:48:48;;;;;;;34.77;16.10;;;17.20;52.70;;;;;;5116434;27;20199;-84
2023/04/06 00:51:15;;;;;;;42.47;16.57;;;17.20;52.70;;;;;;5111608;27;20634;-84
2023/04/06 00:53:42;;;;;;;50.07;17.03;;;17.20;52.70;;;;;;5129669;27;20200;-85
2023/04/06 00:56:11;;;;;;;44.53;17.47;;;17.10;52.60;;;;;;5129975;27;20283;-85
2023/04/06 00:58:40;;;;;;;39.63;16.17;;;17.10;52.60;;;;;;5130330;27;20894;-85
2023/04/06 01:01:07;;;;;;;45.87;17.27;;;17.10;52.60;;;;;;5115882;27;20249;-85
2023/04/06 01:03:34;;;;;;;39.63;16.23;;;17.10;52.60;;;;;;5122689;27;20292;-85
2023/04/06 01:06:01;;;;;;;35.80;16.03;;;17.10;52.60;;;;;;5118318;27;20721;-85
2023/04/06 01:08:28;;;;;;;45.93;17.07;;;17.10;52.60;;;;;;5111682;27;20216;-86
2023/04/06 01:10:55;;;;;;;43.13;17.10;;;17.10;52.60;;;;;;5127641;27;20205;-84
2023/04/06 01:13:23;;;;;;;45.03;17.03;;;17.10;52.60;;;;;;5123291;27;20194;-89
2023/04/06 01:15:51;;;;;;;44.07;16.77;;;17.10;52.60;;;;;;5129348;27;20230;-87
2023/04/06 01:18:18;;;;;;;47.83;17.53;;;17.00;52.60;;;;;;5115668;27;20288;-86
2023/04/06 01:20:45;;;;;;;61.33;18.37;;;17.00;52.60;;;;;;5126370;27;20272;-85
2023/04/06 01:23:13;;;;;;;49.63;16.97;;;17.00;52.60;;;;;;5114560;27;20203;-87
2023/04/06 01:25:40;;;;;;;54.77;18.20;;;17.00;52.60;;;;;;5126833;27;20316;-85
2023/04/06 01:28:07;;;;;;;33.80;15.73;;;17.00;52.60;;;;;;5114284;27;20265;-86
2023/04/06 01:30:34;;;;;;;56.20;17.37;;;17.00;52.60;;;;;;5119073;27;20226;-85
2023/04/06 01:33:01;;;;;;;44.43;17.10;;;17.00;52.60;;;;;;5124884;27;20206;-93
2023/04/06 01:35:29;;;;;;;37.40;16.03;;;17.00;52.60;;;;;;5121897;27;20598;-85
2023/04/06 01:37:56;;;;;;;41.00;17.40;;;17.00;52.60;;;;;;5109749;27;20204;-85
2023/04/06 01:40:25;;;;;;;68.87;20.17;;;17.00;52.60;;;;;;5110498;27;20657;-86
2023/04/06 01:42:52;;;;;;;39.07;16.43;;;16.90;52.40;;;;;;5110405;28;20200;-85
2023/04/06 01:45:19;;;;;;;41.37;15.83;;;17.00;52.60;;;;;;5117356;27;20564;-86
2023/04/06 01:47:46;;;;;;;37.43;16.27;;;16.90;52.50;;;;;;5122891;27;20286;-84
2023/04/06 01:50:13;;;;;;;58.80;17.07;;;16.80;52.40;;;;;;5121575;27;20264;-89
2023/04/06 01:52:40;;;;;;;52.77;17.67;;;16.90;52.50;;;;;;5118451;27;20194;-85
2023/04/06 01:55:07;;;;;;;40.57;16.23;;;16.90;52.50;;;;;;5121127;27;20208;-85
2023/04/06 01:57:36;;;;;;;41.00;17.80;;;16.90;52.50;;;;;;5107785;27;20722;-85
2023/04/06 02:00:03;;;;;;;40.30;15.63;;;16.90;52.50;;;;;;5110872;27;20279;-87
2023/04/06 02:02:30;;;;;;;50.37;15.93;;;16.90;52.50;;;;;;5111225;27;20198;-87
2023/04/06 02:04:57;;;;;;;40.63;16.57;;;16.90;52.50;;;;;;5121021;27;20264;-86
2023/04/06 02:07:24;;;;;;;38.77;15.43;;;16.90;52.50;;;;;;5118106;27;20255;-85
2023/04/06 02:09:55;;;;;;;37.77;15.17;;;16.80;52.40;;;;;;5109654;27;20699;-85
2023/04/06 02:12:22;;;;;;;57.33;16.00;;;16.80;52.40;;;;;;5109362;27;20317;-86
2023/04/06 02:14:50;;;;;;;49.97;16.53;;;16.80;52.40;;;;;;5112905;27;20192;-84
2023/04/06 02:17:17;;;;;;;36.90;15.00;;;16.80;52.40;;;;;;5122022;27;20252;-85
2023/04/06 02:19:44;;;;;;;72.23;17.73;;;16.80;52.40;;;;;;5114699;27;20215;-88
2023/04/06 02:22:11;;;;;;;68.90;18.17;;;16.80;52.40;;;;;;5112120;27;20601;-85
2023/04/06 02:24:38;;;;;;;38.97;15.10;;;16.80;52.40;;;;;;5116516;27;20206;-91
2023/04/06 02:27:05;;;;;;;39.17;15.70;;;16.80;52.40;;;;;;5120667;27;20198;-91
2023/04/06 02:29:32;;;;;;;49.87;15.27;;;16.80;52.50;;;;;;5126936;27;20205;-92
2023/04/06 02:32:01;;;;;;;50.03;15.57;;;16.80;52.40;;;;;;5118720;27;20895;-93
2023/04/06 02:34:29;;;;;;;56.73;16.73;;;16.80;52.40;;;;;;5110385;27;20295;-93
2023/04/06 02:36:56;;;;;;;47.27;16.00;;;16.80;52.50;;;;;;5113003;27;20212;-92
2023/04/06 02:39:23;;;;;;;40.87;15.10;;;16.70;52.40;;;;;;5126872;27;20271;-92
2023/04/06 02:41:50;;;;;;;45.03;15.80;;;16.70;52.40;;;;;;5111827;27;20198;-89
2023/04/06 02:44:17;;;;;;;41.80;15.00;;;16.70;52.40;;;;;;5112978;27;20811;-91
2023/04/06 02:46:44;;;;;;;37.53;14.63;;;16.70;52.40;;;;;;5111424;28;20291;-90
2023/04/06 02:49:12;;;;;;;31.17;13.80;;;16.70;52.40;;;;;;5115078;28;20198;-91
2023/04/06 02:51:39;;;;;;;43.20;14.37;;;16.70;52.40;;;;;;5117178;28;20225;-91
2023/04/06 02:54:07;;;;;;;39.53;13.87;;;16.70;52.40;;;;;;5119538;27;20209;-89
2023/04/06 02:56:34;;;;;;;38.70;14.00;;;16.70;52.40;;;;;;5128190;27;20258;-91
2023/04/06 02:59:00;;;;;;;52.37;15.13;;;16.70;52.40;;;;;;5114576;27;20930;-85
2023/04/06 03:01:28;;;;;;;30.47;13.30;;;16.70;52.40;;;;;;5131579;27;20230;-89
2023/04/06 03:03:55;;;;;;;34.33;14.17;;;16.70;52.40;;;;;;5118471;27;20240;-85
2023/04/06 03:06:24;;;;;;;51.00;15.57;;;16.70;52.40;;;;;;5131105;27;20227;-84
2023/04/06 03:08:51;;;;;;;32.27;13.83;;;16.70;52.40;;;;;;5126833;27;20222;-85
2023/04/06 03:11:18;;;;;;;36.57;12.80;;;16.60;52.30;;;;;;5112409;28;20203;-87
2023/04/06 03:13:46;;;;;;;40.97;14.63;;;16.60;52.30;;;;;;5119921;27;20254;-85
2023/04/06 03:16:12;;;;;;;36.07;14.27;;;16.60;52.40;;;;;;5115701;27;20302;-84
2023/04/06 03:18:39;;;;;;;47.80;15.00;;;16.60;52.40;;;;;;5113945;27;20235;-85
2023/04/06 03:21:06;;;;;;;34.30;13.10;;;16.60;52.30;;;;;;5115092;27;20614;-84
2023/04/06 03:23:35;;;;;;;84.87;17.70;;;16.60;52.40;;;;;;5118614;27;20676;-85
2023/04/06 03:26:02;;;;;;;78.50;17.03;;;16.70;52.50;;;;;;5119296;27;20669;-85
2023/04/06 03:28:29;;;;;;;61.33;16.60;;;16.60;52.40;;;;;;5111500;27;20201;-85
2023/04/06 03:30:56;;;;;;;39.10;13.87;;;16.60;52.40;;;;;;5114581;27;20206;-84
2023/04/06 03:33:23;;;;;;;48.07;15.00;;;16.60;52.40;;;;;;5111307;27;20200;-84
2023/04/06 03:35:50;;;;;;;44.93;14.70;;;16.60;52.40;;;;;;5125879;27;20212;-84
2023/04/06 03:38:17;;;;;;;49.87;15.07;;;16.60;52.40;;;;;;5123464;27;20322;-85
2023/04/06 03:40:46;;;;;;;35.77;14.03;;;16.60;52.40;;;;;;5118596;27;20351;-85
2023/04/06 03:43:14;;;;;;;33.93;12.57;;;16.60;52.40;;;;;;5124633;27;20237;-85
2023/04/06 03:45:41;;;;;;;62.00;15.57;;;16.50;52.30;;;;;;5127265;27;20254;-85
2023/04/06 03:48:08;;;;;;;33.40;13.07;;;16.50;52.40;;;;;;5117063;27;20236;-85
2023/04/06 03:50:35;;;;;;;41.93;13.77;;;16.50;52.40;;;;;;5124316;27;20202;-84
2023/04/06 03:53:02;;;;;;;41.93;13.43;;;16.50;52.40;;;;;;5114834;27;20212;-85
2023/04/06 03:55:29;;;;;;;34.53;12.40;;;16.50;52.40;;;;;;5113912;27;20698;-85
2023/04/06 03:57:58;;;;;;;34.27;13.00;;;16.50;52.50;;;;;;5118348;27;20221;-85
2023/04/06 04:00:25;;;;;;;33.90;13.27;;;16.50;52.40;;;;;;5111997;27;20222;-85
2023/04/06 04:02:52;;;;;;;38.80;13.83;;;16.50;52.40;;;;;;5122146;27;20677;-84
2023/04/06 04:05:24;;;;;;;32.27;12.97;;;16.50;52.50;;;;;;5116380;27;20200;-87
2023/04/06 04:07:51;;;;;;;44.50;13.63;;;16.50;52.50;;;;;;5121464;27;20198;-91
2023/04/06 04:10:18;;;;;;;52.33;14.27;;;16.50;52.50;;;;;;5128630;27;20237;-85
2023/04/06 04:12:45;;;;;;;37.60;14.13;;;16.50;52.50;;;;;;5123654;27;20721;-85
2023/04/06 04:15:14;;;;;;;31.60;13.43;;;16.50;52.50;;;;;;5113919;27;20203;-86
2023/04/06 04:17:41;;;;;;;34.37;12.60;;;16.50;52.50;;;;;;5116508;27;20253;-85
2023/04/06 04:20:09;;;;;;;31.27;11.87;;;16.50;52.50;;;;;;5119822;27;20287;-85
2023/04/06 04:22:36;;;;;;;54.33;13.90;;;16.50;52.50;;;;;;5112225;27;20202;-85
2023/04/06 04:25:03;;;;;;;37.10;13.10;;;16.50;52.50;;;;;;5116224;27;20285;-91
2023/04/06 04:27:30;;;;;;;52.53;14.20;;;16.50;52.50;;;;;;5120150;27;20224;-91
2023/04/06 04:29:57;;;;;;;39.63;13.13;;;16.50;52.50;;;;;;5129161;27;20290;-94
2023/04/06 04:32:27;;;;;;;44.03;12.47;;;16.50;52.50;;;;;;5129905;27;20257;-90
2023/04/06 04:34:54;;;;;;;66.60;15.43;;;16.50;52.50;;;;;;5125491;27;20258;-86
2023/04/06 04:37:21;;;;;;;75.20;15.53;;;16.50;52.50;;;;;;5115765;27;20218;-89
2023/04/06 04:39:48;;;;;;;60.63;14.47;;;16.50;52.50;;;;;;5124107;27;20237;-89
2023/04/06 04:42:15;;;;;;;60.00;13.93;;;16.50;52.50;;;;;;5124603;27;20305;-92
2023/04/06 04:44:42;;;;;;;43.07;13.00;;;16.50;52.50;;;;;;5128178;27;20198;-89
2023/04/06 04:47:09;;;;;;;39.27;12.83;;;16.40;52.40;;;;;;5113838;27;20358;-94
2023/04/06 04:49:37;;;;;;;32.37;11.07;;;16.50;52.50;;;;;;5152260;27;20292;-89
2023/04/06 04:52:04;;;;;;;43.03;12.87;;;16.40;52.40;;;;;;5144911;27;20206;-92
2023/04/06 04:54:31;;;;;;;29.53;11.13;;;16.50;52.50;;;;;;5131550;27;20209;-89
2023/04/06 04:56:58;;;;;;;42.13;12.03;;;16.50;52.50;;;;;;5131233;27;20301;-91
2023/04/06 04:59:29;;;;;;;54.13;12.17;;;16.40;52.50;;;;;;5131279;27;20230;-95
2023/04/06 05:01:56;;;;;;;26.57;9.87;;;16.50;52.50;;;;;;5135134;27;20196;-94
2023/04/06 05:04:23;;;;;;;30.47;10.33;;;16.40;52.50;;;;;;5143842;27;20662;-93
2023/04/06 05:06:52;;;;;;;34.60;10.83;;;16.40;52.50;;;;;;5131706;27;20647;-91
2023/04/06 05:09:19;;;;;;;33.10;10.73;;;16.40;52.50;;;;;;5116951;27;20634;-93
2023/04/06 05:11:46;;;;;;;31.53;10.27;;;16.40;52.50;;;;;;5128788;27;20452;-91
2023/04/06 05:14:13;;;;;;;30.33;10.70;;;16.40;52.50;;;;;;5131048;27;20275;-91
2023/04/06 05:16:40;;;;;;;39.77;10.97;;;16.40;52.50;;;;;;5130839;27;20670;-92
2023/04/06 05:19:07;;;;;;;40.73;10.90;;;16.40;52.50;;;;;;5120194;27;20259;-90
2023/04/06 05:21:34;;;;;;;51.03;11.13;;;16.40;52.50;;;;;;5110825;28;20645;-92
2023/04/06 05:24:03;;;;;;;74.20;13.67;;;16.40;52.50;;;;;;5110190;27;20205;-92
2023/04/06 05:26:30;;;;;;;39.77;10.23;;;16.40;52.50;;;;;;5109531;27;20248;-91
2023/04/06 05:28:58;;;;;;;51.53;11.00;;;16.40;52.60;;;;;;5110069;27;20707;-89
2023/04/06 05:31:25;;;;;;;45.23;11.23;;;16.40;52.60;;;;;;5110770;27;20666;-93
2023/04/06 05:33:52;;;;;;;35.10;9.70;;;16.40;52.60;;;;;;5111141;27;20719;-85
2023/04/06 05:36:19;;;;;;;42.80;10.23;;;16.40;52.60;;;;;;5123657;27;20259;-90
2023/04/06 05:38:46;;;;;;;49.90;11.10;;;16.40;52.60;;;;;;5126662;27;20601;-85
2023/04/06 05:41:14;;;;;;;46.53;10.60;;;16.40;52.60;;;;;;5124273;27;20198;-85
2023/04/06 05:43:41;;;;;;;62.63;11.07;;;16.40;52.60;;;;;;5125852;27;20312;-85
2023/04/06 05:46:08;;;;;;;34.80;9.10;;;16.40;53.10;;;;;;5114614;27;20257;-85
2023/04/06 05:48:38;;;;;;;34.93;9.40;;;16.40;52.60;;;;;;5130119;27;20202;-87
2023/04/06 05:51:06;;;;;;;37.77;9.53;;;16.40;52.60;;;;;;5141438;27;20197;-88
2023/04/06 05:53:34;;;;;;;39.50;9.90;;;16.40;52.60;;;;;;5133310;27;20302;-91
2023/04/06 05:56:02;;;;;;;39.83;9.43;;;16.30;52.50;;;;;;5130440;27;20222;-92
2023/04/06 05:58:30;;;;;;;34.23;9.43;;;16.30;52.60;;;;;;5113483;27;20264;-87
2023/04/06 06:00:58;;;;;;;35.97;9.87;;;16.30;52.60;;;;;;5108860;27;20804;-87
2023/04/06 06:03:26;;;;;;;39.47;9.17;;;16.30;52.60;;;;;;5118365;27;20227;-88
2023/04/06 06:05:53;;;;;;;27.47;8.80;;;16.30;52.60;;;;;;5128118;27;20203;-92
2023/04/06 06:08:23;;;;;;;32.50;8.93;;;16.30;52.60;;;;;;5129088;27;20252;-91
2023/04/06 06:10:51;;;;;;;51.23;9.63;;;16.30;52.60;;;;;;5110167;27;20224;-91
2023/04/06 06:13:18;;;;;;;29.33;8.37;;;16.40;52.70;;;;;;5109792;27;20198;-91
2023/04/06 06:15:47;;;;;;;29.37;8.30;;;16.30;52.60;;;;;;5108738;28;20202;-93
2023/04/06 06:18:14;;;;;;;32.57;8.70;;;16.30;52.60;;;;;;5111832;27;20278;-92
2023/04/06 06:20:41;;;;;;;24.50;7.47;;;16.30;52.60;;;;;;5129666;27;20192;-91
2023/04/06 06:23:08;;;;;;;38.90;8.37;;;16.40;52.70;;;;;;5123114;27;20205;-92
2023/04/06 06:25:36;;;;;;;23.20;6.80;;;16.30;52.60;;;;;;5125907;27;20217;-93
2023/04/06 06:28:03;;;;;;;27.33;7.37;;;16.30;52.60;;;;;;5108500;27;20629;-91
2023/04/06 06:30:30;;;;;;;22.73;6.77;;;16.30;52.60;;;;;;5108442;27;20206;-91
2023/04/06 06:32:58;;;;;;;47.77;8.87;;;16.30;52.60;;;;;;5118070;27;20201;-91
2023/04/06 06:35:25;;;;;;;30.83;7.90;;;16.30;52.60;;;;;;5129530;27;20203;-91
2023/04/06 06:37:53;;;;;;;34.63;8.07;;;16.30;52.60;;;;;;5121095;28;20224;-91
2023/04/06 06:40:23;;;;;;;30.60;8.33;;;16.30;52.60;;;;;;5127897;27;20213;-91
2023/04/06 06:42:52;;;;;;;29.77;6.93;;;16.30;52.60;;;;;;5126644;27;20199;-90
2023/04/06 06:45:19;;;;;;;38.40;8.10;;;16.30;52.60;;;;;;5113318;27;20947;-90
2023/04/06 06:47:47;;;;;;;32.77;7.27;;;16.30;52.60;;;;;;5120723;28;20234;-87
2023/04/06 06:50:15;;;;;;;30.27;7.47;;;16.30;52.70;;;;;;5129227;28;20256;-86
2023/04/06 06:52:42;;;;;;;40.87;8.40;;;16.30;52.80;;;;;;5129111;28;20230;-86
2023/04/06 06:55:11;;;;;;;38.00;8.10;;;16.30;52.80;;;;;;5128794;28;20258;-86
2023/04/06 06:57:38;;;;;;;36.93;9.03;;;16.30;52.80;;;;;;5128643;28;20193;-86
2023/04/06 07:00:07;;;;;;;48.50;9.23;;;16.30;52.70;;;;;;5128171;28;20397;-86
2023/04/06 07:02:36;;;;;;;37.63;7.83;;;16.30;52.80;;;;;;5120555;27;20670;-86
2023/04/06 07:05:03;;;;;;;30.00;7.07;;;16.30;52.70;;;;;;5128579;28;20201;-86
2023/04/06 07:07:33;;;;;;;29.10;7.10;;;16.30;52.70;;;;;;5128733;28;20975;-85
2023/04/06 07:10:00;;;;;;;42.83;7.93;;;16.30;52.80;;;;;;5128333;28;20548;-87
2023/04/06 07:12:28;;;;;;;37.83;8.40;;;16.30;52.80;;;;;;5128465;28;20806;-88
2023/04/06 07:14:55;;;;;;;31.23;6.87;;;16.30;52.80;;;;;;5128671;28;20185;-87
2023/04/06 07:17:22;;;;;;;41.97;8.13;;;16.10;52.60;;;;;;5127703;28;20220;-86
2023/04/06 07:19:50;;;;;;;28.93;7.03;;;16.20;52.70;;;;;;5128586;28;20303;-86
2023/04/06 07:22:17;;;;;;;41.80;7.87;;;16.20;52.70;;;;;;5128818;27;20181;-87
2023/04/06 07:24:45;;;;;;;52.23;8.70;;;16.20;52.70;;;;;;5119423;27;20313;-87
2023/04/06 07:27:12;;;;;;;43.33;8.37;;;16.20;52.70;;;;;;5117276;27;20314;-90
2023/04/06 07:29:42;;;;;;;39.87;8.67;;;16.20;52.70;;;;;;5122401;27;20613;-87
2023/04/06 07:32:09;;;;;;;38.67;7.97;;;16.20;52.70;;;;;;5113533;27;20369;-86
2023/04/06 07:34:36;;;;;;;39.43;8.37;;;16.20;52.70;;;;;;5125370;27;20197;-88
2023/04/06 07:37:03;;;;;;;40.37;8.43;;;16.20;52.70;;;;;;5119050;27;20306;-89
2023/04/06 07:39:30;;;;;;;67.70;10.17;;;16.20;52.70;;;;;;5122811;27;20282;-90
2023/04/06 07:41:58;;;;;;;24.70;7.07;;;16.20;52.70;;;;;;5112803;27;20237;-90
2023/04/06 07:44:25;;;;;;;40.30;8.47;;;16.20;52.70;;;;;;5128639;27;20199;-89
2023/04/06 07:46:52;;;;;;;76.33;11.20;;;16.20;52.70;;;;;;5119879;27;20296;-88
2023/04/06 07:49:20;;;;;;;48.13;9.03;;;16.20;52.70;;;;;;5112490;27;20202;-89
2023/04/06 07:51:47;;;;;;;34.63;7.83;;;16.20;52.70;;;;;;5130452;27;20256;-96
2023/04/06 07:54:14;;;;;;;38.93;8.23;;;16.20;52.70;;;;;;5114307;27;20231;-89
2023/04/06 07:56:41;;;;;;;39.77;8.23;;;16.20;52.80;;;;;;5114202;27;20595;-94
2023/04/06 07:59:11;;;;;;;26.33;6.70;;;16.20;52.80;;;;;;5119314;27;20739;-89
2023/04/06 08:01:38;;;;;;;25.57;7.03;;;16.20;52.80;;;;;;5117317;27;20237;-91
2023/04/06 08:04:05;;;;;;;28.93;6.83;;;16.20;52.80;;;;;;5120440;27;20204;-95
2023/04/06 08:06:36;;;;;;;25.57;6.80;;;16.30;52.80;;;;;;5113969;27;20206;-91
2023/04/06 08:09:03;;;;;;;48.97;8.33;;;16.20;52.80;;;;;;5113319;27;20202;-88
2023/04/06 08:11:30;;;;;;;24.33;6.67;;;16.20;52.80;;;;;;5125948;27;20938;-88
2023/04/06 08:13:58;;;;;;;29.63;7.33;;;16.30;52.90;;;;;;5131862;27;20277;-91
2023/04/06 08:16:26;;;;;;;35.07;8.03;;;16.20;52.80;;;;;;5126606;27;20536;-91
2023/04/06 08:18:53;;;;;;;23.70;6.87;;;16.30;52.90;;;;;;5132422;27;20229;-93
2023/04/06 08:21:20;;;;;;;29.63;8.37;;;16.30;52.90;;;;;;5126513;27;20294;-90
2023/04/06 08:23:47;;;;;;;29.93;7.37;;;16.20;52.80;;;;;;5123662;27;20204;-88
2023/04/06 08:26:14;;;;;;;38.27;8.43;;;16.20;52.80;;;;;;5119015;27;20287;-88
2023/04/06 08:28:41;;;;;;;35.40;8.30;;;16.30;52.90;;;;;;5119511;27;20240;-89
2023/04/06 08:31:08;;;;;;;35.07;8.27;;;16.30;53.50;;;;;;5119393;27;20227;-89
2023/04/06 08:33:38;;;;;;;32.83;8.10;;;16.30;53.00;;;;;;5113807;27;20218;-90
2023/04/06 08:36:10;;;;;;;27.77;7.97;;;16.30;52.90;;;;;;5121524;27;20222;-89
2023/04/06 08:38:37;;;;;;;44.03;8.87;;;16.30;52.90;;;;;;5113199;27;20242;-88
2023/04/06 08:41:14;;;;;;;49.77;9.50;;;16.30;52.90;;;;;;5123326;27;20197;-88
2023/04/06 08:43:44;;;;;;;42.33;9.67;;;16.20;52.90;;;;;;5117924;27;20198;-88
2023/04/06 08:46:13;;;;;;;40.73;9.70;;;16.30;53.00;;;;;;5117467;27;20199;-88
2023/04/06 08:48:43;;;;;;;21.63;6.90;;;16.30;53.00;;;;;;5125097;27;20264;-90
2023/04/06 08:51:11;;;;;;;33.60;8.00;;;16.30;53.00;;;;;;5138267;27;20254;-89
2023/04/06 08:53:38;;;;;;;31.53;9.07;;;16.20;52.90;;;;;;5112853;27;20290;-95
2023/04/06 08:56:06;;;;;;;29.90;7.97;;;16.30;53.00;;;;;;5114233;27;20707;-89
2023/04/06 08:58:35;;;;;;;36.60;8.67;;;16.30;53.00;;;;;;5120425;27;20630;-93
2023/04/06 09:01:06;;;;;;;30.67;8.73;;;16.30;53.10;;;;;;5130277;27;20209;-90
2023/04/06 09:03:35;;;;;;;30.50;8.37;;;16.30;53.10;;;;;;5129222;27;20229;-92
2023/04/06 09:06:05;;;;;;;48.63;10.40;;;16.20;53.00;;;;;;5119342;27;20288;-94
2023/04/06 09:08:32;;;;;;;24.37;7.93;;;16.20;53.00;;;;;;5111317;27;20306;-91
2023/04/06 09:11:01;;;;;;;36.87;9.07;;;16.20;53.00;;;;;;5114189;27;20205;-92
2023/04/06 09:13:28;;;;;;;32.70;9.17;;;16.20;53.10;;;;;;5124764;27;20196;-92
2023/04/06 09:16:03;;;;;;;39.87;9.40;;;16.20;53.00;;;;;;5128853;27;20194;-94
2023/04/06 09:18:31;;;;;;;33.93;9.33;;;16.20;53.10;;;;;;5125906;27;20210;-92
2023/04/06 09:20:59;;;;;;;47.67;10.63;;;16.20;53.10;;;;;;5123819;27;20345;-90
2023/04/06 09:23:28;;;;;;;41.17;10.07;;;16.20;53.10;;;;;;5129972;27;20640;-91
2023/04/06 09:26:06;;;;;;;27.97;8.77;;;16.30;53.20;;;;;;5126837;27;20661;-91
2023/04/06 09:28:43;;;;;;;30.73;8.33;;;16.20;53.20;;;;;;5126250;27;20239;-92
2023/04/06 09:31:10;;;;;;;31.00;9.53;;;16.20;53.20;;;;;;5119781;27;20220;-92
2023/04/06 09:33:42;;;;;;;39.07;9.10;;;16.20;53.10;;;;;;5122353;27;20597;-92
2023/04/06 09:36:09;;;;;;;44.27;10.30;;;16.20;53.20;;;;;;5119641;27;20233;-93
2023/04/06 09:38:53;;;;;;;41.83;9.97;;;16.20;53.20;;;;;;5112274;27;20625;-91
2023/04/06 09:41:23;;;;;;;37.90;10.27;;;16.20;53.20;;;;;;5117147;27;20233;-90
2023/04/06 09:43:51;;;;;;;65.93;12.77;;;16.20;53.20;;;;;;5112001;27;20284;-92
2023/04/06 09:46:21;;;;;;;47.57;10.13;;;16.30;53.30;;;;;;5113155;27;20208;-90
2023/04/06 09:48:50;;;;;;;52.60;11.57;;;16.20;53.30;;;;;;5121981;27;20305;-93
2023/04/06 09:51:22;;;;;;;47.67;11.43;;;16.20;53.30;;;;;;5116597;27;20544;-92
2023/04/06 09:53:54;;;;;;;48.37;10.27;;;16.20;53.30;;;;;;5127623;27;20211;-91
2023/04/06 09:56:28;;;;;;;30.47;9.10;;;16.20;53.90;;;;;;5124331;27;20231;-91
2023/04/06 09:59:03;;;;;;;46.93;10.77;;;16.20;53.30;;;;;;5115365;27;20698;-89
2023/04/06 10:01:33;;;;;;;42.77;10.90;;;16.20;53.30;;;;;;5130865;27;20287;-84
2023/04/06 10:04:11;;;;;;;50.47;10.37;;;16.20;53.30;;;;;;5124272;27;20216;-91
2023/04/06 10:06:40;;;;;;;32.50;9.03;;;16.20;53.30;;;;;;5143158;27;20721;-93
2023/04/06 10:09:09;;;;;;;67.00;12.27;;;16.20;53.30;;;;;;5127912;27;20245;-91
2023/04/06 10:11:38;;;;;;;44.73;10.03;;;16.20;53.40;;;;;;5135103;27;20203;-94
2023/04/06 10:14:11;;;;;;;21.27;8.90;;;16.20;53.40;;;;;;5125630;27;20207;-94
2023/04/06 10:16:38;;;;;;;20.90;9.10;;;16.20;53.40;;;;;;5111017;28;20270;-94
2023/04/06 10:19:13;;;;;;;26.90;8.40;;;16.20;53.40;;;;;;5111282;28;20293;-92
2023/04/06 10:21:44;;;;;;;23.00;8.43;;;16.20;53.50;;;;;;5109416;28;20199;-93
2023/04/06 10:24:13;;;;;;;29.60;8.60;;;16.20;53.40;;;;;;5109364;28;20300;-93
2023/04/06 10:26:41;;;;;;;26.57;8.93;;;16.20;53.50;;;;;;5128159;28;20217;-93
2023/04/06 10:29:08;;;;;;;27.90;8.43;;;16.20;53.40;;;;;;5116137;27;20273;-91
2023/04/06 10:31:43;;;;;;;41.00;9.73;;;16.20;53.40;;;;;;5119932;27;20203;-89
2023/04/06 10:34:14;;;;;;;25.33;8.67;;;16.20;53.50;;;;;;5122363;28;20219;-90
2023/04/06 10:36:41;;;;;;;47.43;10.07;;;16.20;53.40;;;;;;5118106;27;20195;-88
2023/04/06 10:39:08;;;;;;;33.70;8.67;;;16.20;53.40;;;;;;5114712;27;20205;-89
2023/04/06 10:41:41;;;;;;;40.70;9.50;;;16.20;53.40;;;;;;5115739;27;20235;-90
2023/04/06 10:44:08;;;;;;;54.50;10.77;;;16.20;53.50;;;;;;5114715;27;20669;-90
2023/04/06 10:46:36;;;;;;;30.67;9.33;;;16.20;53.40;;;;;;5120327;27;20201;-90
2023/04/06 10:49:12;;;;;;;27.83;8.40;;;16.20;53.50;;;;;;5122475;27;20229;-89
2023/04/06 10:51:40;;;;;;;31.30;8.53;;;16.20;53.50;;;;;;5108290;27;20212;-90
2023/04/06 10:54:07;;;;;;;29.90;8.83;;;16.20;53.50;;;;;;5111013;27;20299;-89
2023/04/06 10:56:38;;;;;;;34.30;9.53;;;16.30;53.60;;;;;;5113198;27;20194;-89
2023/04/06 10:59:21;;;;;;;28.13;8.00;;;16.30;53.60;;;;;;5113325;27;20218;-89
2023/04/06 11:01:49;;;;;;;35.70;9.20;;;16.20;53.50;;;;;;5124766;27;20201;-90
2023/04/06 11:04:18;;;;;;;29.20;8.57;;;16.30;53.60;;;;;;5123550;27;20228;-90
2023/04/06 11:06:48;;;;;;;25.47;7.93;;;16.30;53.70;;;;;;5113478;27;20209;-90
2023/04/06 11:09:26;;;;;;;31.10;8.20;;;16.30;53.60;;;;;;5124217;27;20644;-89
2023/04/06 11:11:55;;;;;;;25.53;7.93;;;16.30;53.70;;;;;;5115481;27;20295;-89
2023/04/06 11:14:22;;;;;;;28.20;7.83;;;16.30;53.70;;;;;;5126414;27;20198;-89
2023/04/06 11:16:50;;;;;;;23.40;7.77;;;16.30;53.70;;;;;;5113528;27;20209;-89
2023/04/06 11:19:17;;;;;;;29.00;7.77;;;16.30;53.70;;;;;;5131758;27;20296;-89
2023/04/06 11:21:47;;;;;;;27.33;8.10;;;16.30;54.30;;;;;;5122054;27;20196;-89
2023/04/06 11:24:16;;;;;;;33.97;8.70;;;16.30;53.70;;;;;;5116103;27;20215;-89
2023/04/06 11:26:48;;;;;;;26.37;7.60;;;16.30;53.70;;;;;;5120234;27;20236;-89
2023/04/06 11:29:18;;;;;;;26.63;7.80;;;16.30;53.70;;;;;;5132251;27;20242;-89
2023/04/06 11:31:47;;;;;;;30.20;8.43;;;16.30;53.70;;;;;;5131316;27;20204;-89
2023/04/06 11:34:19;;;;;;;43.40;8.83;;;16.20;53.70;;;;;;5119201;27;21041;-88
2023/04/06 11:36:48;;;;;;;29.73;8.23;;;16.30;53.70;;;;;;5126557;27;20581;-89
2023/04/06 11:39:20;;;;;;;54.40;9.97;;;16.30;53.80;;;;;;5124505;27;20208;-90
2023/04/06 11:42:00;;;;;;;37.07;8.90;;;16.30;53.80;;;;;;5112345;27;20296;-89
2023/04/06 11:44:35;;;;;;;51.03;9.70;;;16.30;53.80;;;;;;5117352;27;20719;-89
2023/04/06 11:47:05;;;;;;;22.93;7.53;;;16.30;53.80;;;;;;5138007;27;20291;-89
2023/04/06 11:49:34;;;;;;;38.90;8.93;;;16.30;53.80;;;;;;5130580;27;20243;-89
2023/04/06 11:52:20;;;;;;;48.40;8.77;;;16.30;53.80;;;;;;5114032;27;20211;-89
2023/04/06 11:54:48;;;;;;;30.53;8.20;;;16.30;53.90;;;;;;5113737;27;20201;-92
2023/04/06 11:57:16;;;;;;;31.27;8.43;;;16.30;53.80;;;;;;5111637;28;20228;-90
2023/04/06 11:59:45;;;;;;;55.47;10.00;;;16.30;53.80;;;;;;5111361;27;20586;-90
2023/04/06 12:02:12;;;;;;;58.10;11.20;;;16.30;53.90;;;;;;5124073;27;20697;-89
2023/04/06 12:04:39;;;;;;;31.67;7.93;;;16.30;53.90;;;;;;5125504;27;20581;-90
2023/04/06 12:07:06;;;;;;;46.70;9.53;;;16.30;53.90;;;;;;5129723;27;20256;-89
2023/04/06 12:09:34;;;;;;;30.30;8.53;;;16.30;53.90;;;;;;5111053;27;20222;-90
2023/04/06 12:12:01;;;;;;;24.83;8.00;;;16.30;53.90;;;;;;5112440;27;20656;-89
2023/04/06 12:14:28;;;;;;;46.53;9.50;;;16.30;53.90;;;;;;5114799;27;20282;-90
2023/04/06 12:16:57;;;;;;;24.23;7.67;;;16.30;53.90;;;;;;5112945;27;20278;-89
2023/04/06 12:19:25;;;;;;;32.37;8.53;;;16.30;53.90;;;;;;5130627;27;20206;-90
2023/04/06 12:21:53;;;;;;;37.20;9.37;;;16.30;54.00;;;;;;5112404;27;20249;-89
2023/04/06 12:24:20;;;;;;;38.63;8.87;;;16.30;54.00;;;;;;5111212;27;21010;-89
2023/04/06 12:26:47;;;;;;;32.37;9.10;;;16.30;54.00;;;;;;5124144;27;20294;-89
2023/04/06 12:29:14;;;;;;;32.83;9.23;;;16.30;54.00;;;;;;5110024;27;20358;-89
2023/04/06 12:31:44;;;;;;;28.00;7.87;;;16.30;54.00;;;;;;5110173;27;20638;-88
2023/04/06 12:34:12;;;;;;;31.20;8.80;;;16.30;54.00;;;;;;5115756;27;20398;-89
2023/04/06 12:36:40;;;;;;;27.23;8.43;;;16.30;54.10;;;;;;5122020;27;20198;-89